sensor_id;sensor_type;location;lat;lon;timestamp;P1;durP1;ratioP1;P2;durP2;ratioP2
37425;SDS011;23285;50.180;7.036;2022-09-02T00:02:09;3.87;;;1.50;;
37425;SDS011;23285;50.180;7.036;2022-09-02T00:04:54;1.77;;;1.50;;
37425;SDS011;23285;50.180;7.036;2022-09-02T00:07:39;2.87;;;1.40;;
37425;SDS011;23285;50.180;7.036;2022-09-02T00:10:24;2.07;;;1.63;;
37425;SDS011;23285;50.180;7.036;2022-09-02T00:13:10;2.20;;;1.93;;
37425;SDS011;23285;50.180;7.036;2022-09-02T00:15:57;4.37;;;1.70;;
37425;SDS011;23285;50.180;7.036;2022-09-02T00:18:42;4.87;;;1.87;;
37425;SDS011;23285;50.180;7.036;2022-09-02T00:21:29;3.40;;;1.50;;
37425;SDS011;23285;50.180;7.036;2022-09-02T00:24:17;2.57;;;1.50;;
37425;SDS011;23285;50.180;7.036;2022-09-02T00:27:02;3.53;;;1.40;;
37425;SDS011;23285;50.180;7.036;2022-09-02T00:29:48;2.13;;;1.77;;
37425;SDS011;23285;50.180;7.036;2022-09-02T00:32:33;3.10;;;1.80;;
37425;SDS011;23285;50.180;7.036;2022-09-02T00:35:18;2.43;;;1.60;;
37425;SDS011;23285;50.180;7.036;2022-09-02T00:38:05;2.00;;;1.53;;
37425;SDS011;23285;50.180;7.036;2022-09-02T00:40:50;3.07;;;1.77;;
37425;SDS011;23285;50.180;7.036;2022-09-02T00:43:50;2.13;;;1.50;;
37425;SDS011;23285;50.180;7.036;2022-09-02T00:46:37;2.17;;;1.90;;
37425;SDS011;23285;50.180;7.036;2022-09-02T00:49:23;3.00;;;1.77;;
37425;SDS011;23285;50.180;7.036;2022-09-02T00:52:31;3.47;;;1.80;;
37425;SDS011;23285;50.180;7.036;2022-09-02T00:55:21;4.53;;;1.93;;
37425;SDS011;23285;50.180;7.036;2022-09-02T00:58:18;3.70;;;1.70;;
37425;SDS011;23285;50.180;7.036;2022-09-02T01:01:06;1.50;;;1.40;;
37425;SDS011;23285;50.180;7.036;2022-09-02T01:03:54;4.27;;;1.80;;
37425;SDS011;23285;50.180;7.036;2022-09-02T01:06:39;2.93;;;1.50;;
37425;SDS011;23285;50.180;7.036;2022-09-02T01:09:24;3.30;;;1.57;;
37425;SDS011;23285;50.180;7.036;2022-09-02T01:12:09;5.87;;;1.80;;
37425;SDS011;23285;50.180;7.036;2022-09-02T01:14:57;2.07;;;1.87;;
37425;SDS011;23285;50.180;7.036;2022-09-02T01:17:45;2.93;;;1.80;;
37425;SDS011;23285;50.180;7.036;2022-09-02T01:20:32;3.60;;;1.90;;
37425;SDS011;23285;50.180;7.036;2022-09-02T01:23:17;3.50;;;2.00;;
37425;SDS011;23285;50.180;7.036;2022-09-02T01:26:03;1.60;;;1.50;;
37425;SDS011;23285;50.180;7.036;2022-09-02T01:28:50;2.97;;;1.97;;
37425;SDS011;23285;50.180;7.036;2022-09-02T01:31:35;2.63;;;1.80;;
37425;SDS011;23285;50.180;7.036;2022-09-02T01:34:21;3.10;;;1.93;;
37425;SDS011;23285;50.180;7.036;2022-09-02T01:37:06;3.33;;;1.80;;
37425;SDS011;23285;50.180;7.036;2022-09-02T01:39:52;2.13;;;1.70;;
37425;SDS011;23285;50.180;7.036;2022-09-02T01:42:38;2.07;;;1.87;;
37425;SDS011;23285;50.180;7.036;2022-09-02T01:45:24;5.73;;;1.70;;
37425;SDS011;23285;50.180;7.036;2022-09-02T01:48:09;2.20;;;1.90;;
37425;SDS011;23285;50.180;7.036;2022-09-02T01:50:59;5.40;;;2.00;;
37425;SDS011;23285;50.180;7.036;2022-09-02T01:53:46;2.47;;;1.90;;
37425;SDS011;23285;50.180;7.036;2022-09-02T01:56:32;1.80;;;1.70;;
37425;SDS011;23285;50.180;7.036;2022-09-02T01:59:18;1.70;;;1.60;;
37425;SDS011;23285;50.180;7.036;2022-09-02T02:02:05;2.23;;;1.90;;
37425;SDS011;23285;50.180;7.036;2022-09-02T02:04:50;1.70;;;1.60;;
37425;SDS011;23285;50.180;7.036;2022-09-02T02:07:36;2.37;;;1.90;;
37425;SDS011;23285;50.180;7.036;2022-09-02T02:10:22;2.70;;;1.50;;
37425;SDS011;23285;50.180;7.036;2022-09-02T02:13:08;1.90;;;1.77;;
37425;SDS011;23285;50.180;7.036;2022-09-02T02:15:53;3.60;;;2.07;;
37425;SDS011;23285;50.180;7.036;2022-09-02T02:18:38;2.20;;;1.50;;
37425;SDS011;23285;50.180;7.036;2022-09-02T02:21:24;1.90;;;1.77;;
37425;SDS011;23285;50.180;7.036;2022-09-02T02:24:09;2.20;;;2.00;;
37425;SDS011;23285;50.180;7.036;2022-09-02T02:26:54;2.67;;;1.93;;
37425;SDS011;23285;50.180;7.036;2022-09-02T02:29:39;2.10;;;1.90;;
37425;SDS011;23285;50.180;7.036;2022-09-02T02:32:24;2.30;;;1.73;;
37425;SDS011;23285;50.180;7.036;2022-09-02T02:35:10;3.20;;;2.00;;
37425;SDS011;23285;50.180;7.036;2022-09-02T02:37:56;1.70;;;1.60;;
37425;SDS011;23285;50.180;7.036;2022-09-02T02:40:41;3.47;;;1.80;;
37425;SDS011;23285;50.180;7.036;2022-09-02T02:43:26;3.40;;;1.90;;
37425;SDS011;23285;50.180;7.036;2022-09-02T02:46:12;3.70;;;1.93;;
37425;SDS011;23285;50.180;7.036;2022-09-02T02:49:00;1.70;;;1.57;;
37425;SDS011;23285;50.180;7.036;2022-09-02T02:51:47;4.70;;;1.90;;
37425;SDS011;23285;50.180;7.036;2022-09-02T02:54:32;1.77;;;1.67;;
37425;SDS011;23285;50.180;7.036;2022-09-02T02:57:18;2.13;;;1.90;;
37425;SDS011;23285;50.180;7.036;2022-09-02T03:00:05;3.33;;;1.80;;
37425;SDS011;23285;50.180;7.036;2022-09-02T03:02:55;4.50;;;1.90;;
37425;SDS011;23285;50.180;7.036;2022-09-02T03:05:41;3.97;;;1.87;;
37425;SDS011;23285;50.180;7.036;2022-09-02T03:08:27;6.30;;;1.83;;
37425;SDS011;23285;50.180;7.036;2022-09-02T03:11:13;4.07;;;1.83;;
37425;SDS011;23285;50.180;7.036;2022-09-02T03:13:59;3.23;;;1.60;;
37425;SDS011;23285;50.180;7.036;2022-09-02T03:16:45;3.33;;;1.83;;
37425;SDS011;23285;50.180;7.036;2022-09-02T03:19:30;1.90;;;1.70;;
37425;SDS011;23285;50.180;7.036;2022-09-02T03:22:16;2.70;;;1.73;;
37425;SDS011;23285;50.180;7.036;2022-09-02T03:25:01;1.63;;;1.53;;
37425;SDS011;23285;50.180;7.036;2022-09-02T03:27:47;7.40;;;1.90;;
37425;SDS011;23285;50.180;7.036;2022-09-02T03:30:33;2.10;;;1.90;;
37425;SDS011;23285;50.180;7.036;2022-09-02T03:33:19;3.03;;;1.90;;
37425;SDS011;23285;50.180;7.036;2022-09-02T03:36:04;3.53;;;1.83;;
37425;SDS011;23285;50.180;7.036;2022-09-02T03:38:50;6.87;;;2.23;;
37425;SDS011;23285;50.180;7.036;2022-09-02T03:41:36;3.30;;;2.37;;
37425;SDS011;23285;50.180;7.036;2022-09-02T03:44:21;2.80;;;2.00;;
37425;SDS011;23285;50.180;7.036;2022-09-02T03:47:06;2.20;;;2.00;;
37425;SDS011;23285;50.180;7.036;2022-09-02T03:49:52;5.00;;;2.50;;
37425;SDS011;23285;50.180;7.036;2022-09-02T03:52:37;3.13;;;2.30;;
37425;SDS011;23285;50.180;7.036;2022-09-02T03:55:22;3.10;;;2.10;;
37425;SDS011;23285;50.180;7.036;2022-09-02T03:58:08;2.57;;;2.07;;
37425;SDS011;23285;50.180;7.036;2022-09-02T04:00:55;2.73;;;2.13;;
37425;SDS011;23285;50.180;7.036;2022-09-02T04:03:42;3.07;;;2.40;;
37425;SDS011;23285;50.180;7.036;2022-09-02T04:06:29;2.30;;;2.10;;
37425;SDS011;23285;50.180;7.036;2022-09-02T04:09:14;3.07;;;2.20;;
37425;SDS011;23285;50.180;7.036;2022-09-02T04:11:59;2.97;;;2.10;;
37425;SDS011;23285;50.180;7.036;2022-09-02T04:14:45;12.40;;;2.20;;
37425;SDS011;23285;50.180;7.036;2022-09-02T04:17:30;1.80;;;1.70;;
37425;SDS011;23285;50.180;7.036;2022-09-02T04:20:15;1.70;;;1.60;;
37425;SDS011;23285;50.180;7.036;2022-09-02T04:23:01;2.67;;;1.80;;
37425;SDS011;23285;50.180;7.036;2022-09-02T04:25:47;4.30;;;1.80;;
37425;SDS011;23285;50.180;7.036;2022-09-02T04:28:34;1.43;;;1.33;;
37425;SDS011;23285;50.180;7.036;2022-09-02T04:31:21;2.93;;;1.50;;
37425;SDS011;23285;50.180;7.036;2022-09-02T04:34:09;2.70;;;1.83;;
37425;SDS011;23285;50.180;7.036;2022-09-02T04:36:54;4.43;;;1.87;;
37425;SDS011;23285;50.180;7.036;2022-09-02T04:39:39;2.03;;;1.83;;
37425;SDS011;23285;50.180;7.036;2022-09-02T04:42:24;2.70;;;1.90;;
37425;SDS011;23285;50.180;7.036;2022-09-02T04:45:11;2.83;;;1.80;;
37425;SDS011;23285;50.180;7.036;2022-09-02T04:47:57;3.17;;;1.73;;
37425;SDS011;23285;50.180;7.036;2022-09-02T04:50:44;2.40;;;1.97;;
37425;SDS011;23285;50.180;7.036;2022-09-02T04:53:32;4.43;;;2.57;;
37425;SDS011;23285;50.180;7.036;2022-09-02T04:56:20;2.20;;;2.00;;
37425;SDS011;23285;50.180;7.036;2022-09-02T04:59:06;2.23;;;1.80;;
37425;SDS011;23285;50.180;7.036;2022-09-02T05:01:54;2.70;;;1.80;;
37425;SDS011;23285;50.180;7.036;2022-09-02T05:04:43;4.27;;;1.60;;
37425;SDS011;23285;50.180;7.036;2022-09-02T05:07:37;2.10;;;1.90;;
37425;SDS011;23285;50.180;7.036;2022-09-02T05:10:23;2.70;;;1.90;;
37425;SDS011;23285;50.180;7.036;2022-09-02T05:13:08;2.97;;;1.90;;
37425;SDS011;23285;50.180;7.036;2022-09-02T05:15:55;2.20;;;1.93;;
37425;SDS011;23285;50.180;7.036;2022-09-02T05:18:41;4.07;;;1.83;;
37425;SDS011;23285;50.180;7.036;2022-09-02T05:21:26;2.37;;;2.00;;
37425;SDS011;23285;50.180;7.036;2022-09-02T05:24:13;6.07;;;2.27;;
37425;SDS011;23285;50.180;7.036;2022-09-02T05:26:58;4.07;;;2.10;;
37425;SDS011;23285;50.180;7.036;2022-09-02T05:29:44;3.60;;;1.87;;
37425;SDS011;23285;50.180;7.036;2022-09-02T05:32:30;3.90;;;2.00;;
37425;SDS011;23285;50.180;7.036;2022-09-02T05:35:16;3.83;;;2.30;;
37425;SDS011;23285;50.180;7.036;2022-09-02T05:38:01;5.50;;;2.43;;
37425;SDS011;23285;50.180;7.036;2022-09-02T05:40:47;1.87;;;1.77;;
37425;SDS011;23285;50.180;7.036;2022-09-02T05:43:34;2.43;;;2.00;;
37425;SDS011;23285;50.180;7.036;2022-09-02T05:46:20;2.60;;;1.97;;
37425;SDS011;23285;50.180;7.036;2022-09-02T05:49:08;4.63;;;2.40;;
37425;SDS011;23285;50.180;7.036;2022-09-02T05:52:03;4.40;;;1.63;;
37425;SDS011;23285;50.180;7.036;2022-09-02T05:54:58;2.30;;;2.10;;
37425;SDS011;23285;50.180;7.036;2022-09-02T05:57:44;3.23;;;2.00;;
37425;SDS011;23285;50.180;7.036;2022-09-02T06:00:29;2.27;;;1.63;;
37425;SDS011;23285;50.180;7.036;2022-09-02T06:03:18;3.60;;;2.03;;
37425;SDS011;23285;50.180;7.036;2022-09-02T06:06:05;2.57;;;2.00;;
37425;SDS011;23285;50.180;7.036;2022-09-02T06:08:53;3.47;;;2.00;;
37425;SDS011;23285;50.180;7.036;2022-09-02T06:11:39;3.23;;;2.10;;
37425;SDS011;23285;50.180;7.036;2022-09-02T06:14:29;2.70;;;1.97;;
37425;SDS011;23285;50.180;7.036;2022-09-02T06:17:15;2.00;;;1.80;;
37425;SDS011;23285;50.180;7.036;2022-09-02T06:20:06;4.20;;;2.20;;
37425;SDS011;23285;50.180;7.036;2022-09-02T06:22:52;4.60;;;2.10;;
37425;SDS011;23285;50.180;7.036;2022-09-02T06:25:38;2.60;;;2.00;;
37425;SDS011;23285;50.180;7.036;2022-09-02T06:28:26;2.13;;;1.83;;
37425;SDS011;23285;50.180;7.036;2022-09-02T06:31:13;3.67;;;2.33;;
37425;SDS011;23285;50.180;7.036;2022-09-02T06:34:01;2.40;;;2.00;;
37425;SDS011;23285;50.180;7.036;2022-09-02T06:36:48;3.03;;;1.80;;
37425;SDS011;23285;50.180;7.036;2022-09-02T06:39:36;8.37;;;2.67;;
37425;SDS011;23285;50.180;7.036;2022-09-02T06:42:22;3.03;;;2.10;;
37425;SDS011;23285;50.180;7.036;2022-09-02T06:45:26;2.40;;;2.20;;
37425;SDS011;23285;50.180;7.036;2022-09-02T06:48:15;5.80;;;1.90;;
37425;SDS011;23285;50.180;7.036;2022-09-02T06:51:01;4.23;;;2.03;;
37425;SDS011;23285;50.180;7.036;2022-09-02T06:53:46;2.80;;;1.90;;
37425;SDS011;23285;50.180;7.036;2022-09-02T06:56:31;2.50;;;2.13;;
37425;SDS011;23285;50.180;7.036;2022-09-02T06:59:17;2.30;;;2.10;;
37425;SDS011;23285;50.180;7.036;2022-09-02T07:02:07;4.07;;;2.20;;
37425;SDS011;23285;50.180;7.036;2022-09-02T07:04:53;3.87;;;1.87;;
37425;SDS011;23285;50.180;7.036;2022-09-02T07:07:53;3.57;;;2.10;;
37425;SDS011;23285;50.180;7.036;2022-09-02T07:10:39;2.67;;;2.00;;
37425;SDS011;23285;50.180;7.036;2022-09-02T07:13:26;2.87;;;2.00;;
37425;SDS011;23285;50.180;7.036;2022-09-02T07:16:13;6.13;;;1.80;;
37425;SDS011;23285;50.180;7.036;2022-09-02T07:18:59;2.80;;;1.77;;
37425;SDS011;23285;50.180;7.036;2022-09-02T07:21:45;2.63;;;1.93;;
37425;SDS011;23285;50.180;7.036;2022-09-02T07:24:32;2.67;;;2.03;;
37425;SDS011;23285;50.180;7.036;2022-09-02T07:27:18;5.17;;;1.70;;
37425;SDS011;23285;50.180;7.036;2022-09-02T07:30:05;3.57;;;2.03;;
37425;SDS011;23285;50.180;7.036;2022-09-02T07:32:54;2.37;;;1.90;;
37425;SDS011;23285;50.180;7.036;2022-09-02T07:35:41;3.27;;;2.00;;
37425;SDS011;23285;50.180;7.036;2022-09-02T07:38:27;3.83;;;2.10;;
37425;SDS011;23285;50.180;7.036;2022-09-02T07:41:14;3.53;;;1.97;;
37425;SDS011;23285;50.180;7.036;2022-09-02T07:43:59;3.10;;;2.13;;
37425;SDS011;23285;50.180;7.036;2022-09-02T07:46:47;5.37;;;1.83;;
37425;SDS011;23285;50.180;7.036;2022-09-02T07:49:34;2.73;;;1.67;;
37425;SDS011;23285;50.180;7.036;2022-09-02T07:52:19;2.10;;;1.60;;
37425;SDS011;23285;50.180;7.036;2022-09-02T07:55:05;3.63;;;2.00;;
37425;SDS011;23285;50.180;7.036;2022-09-02T07:57:50;2.93;;;1.77;;
37425;SDS011;23285;50.180;7.036;2022-09-02T08:00:37;1.53;;;1.43;;
37425;SDS011;23285;50.180;7.036;2022-09-02T08:03:27;3.13;;;2.00;;
37425;SDS011;23285;50.180;7.036;2022-09-02T08:06:15;2.50;;;1.80;;
37425;SDS011;23285;50.180;7.036;2022-09-02T08:09:00;2.03;;;1.60;;
37425;SDS011;23285;50.180;7.036;2022-09-02T08:11:48;2.83;;;1.90;;
37425;SDS011;23285;50.180;7.036;2022-09-02T08:14:34;2.60;;;1.70;;
37425;SDS011;23285;50.180;7.036;2022-09-02T08:17:19;5.07;;;1.87;;
37425;SDS011;23285;50.180;7.036;2022-09-02T08:20:06;2.40;;;1.80;;
37425;SDS011;23285;50.180;7.036;2022-09-02T08:22:52;4.73;;;2.20;;
37425;SDS011;23285;50.180;7.036;2022-09-02T08:25:36;1.93;;;1.60;;
37425;SDS011;23285;50.180;7.036;2022-09-02T08:28:21;3.07;;;1.70;;
37425;SDS011;23285;50.180;7.036;2022-09-02T08:31:06;4.03;;;1.60;;
37425;SDS011;23285;50.180;7.036;2022-09-02T08:33:51;1.40;;;1.30;;
37425;SDS011;23285;50.180;7.036;2022-09-02T08:36:36;2.00;;;1.60;;
37425;SDS011;23285;50.180;7.036;2022-09-02T08:39:23;2.33;;;1.47;;
37425;SDS011;23285;50.180;7.036;2022-09-02T08:45:36;1.70;;;1.30;;
37425;SDS011;23285;50.180;7.036;2022-09-02T08:54:33;6.17;;;1.73;;
37425;SDS011;23285;50.180;7.036;2022-09-02T08:57:21;1.97;;;1.67;;
37425;SDS011;23285;50.180;7.036;2022-09-02T09:00:11;4.07;;;1.47;;
37425;SDS011;23285;50.180;7.036;2022-09-02T09:06:05;1.67;;;1.57;;
37425;SDS011;23285;50.180;7.036;2022-09-02T09:18:16;5.57;;;1.63;;
37425;SDS011;23285;50.180;7.036;2022-09-02T09:21:12;2.70;;;1.47;;
37425;SDS011;23285;50.180;7.036;2022-09-02T09:23:59;4.27;;;1.70;;
37425;SDS011;23285;50.180;7.036;2022-09-02T09:26:49;2.00;;;1.50;;
37425;SDS011;23285;50.180;7.036;2022-09-02T09:29:37;1.70;;;1.60;;
37425;SDS011;23285;50.180;7.036;2022-09-02T09:32:26;4.23;;;1.47;;
37425;SDS011;23285;50.180;7.036;2022-09-02T09:35:14;2.47;;;1.27;;
37425;SDS011;23285;50.180;7.036;2022-09-02T09:38:01;1.60;;;1.40;;
37425;SDS011;23285;50.180;7.036;2022-09-02T09:41:09;2.63;;;1.33;;
37425;SDS011;23285;50.180;7.036;2022-09-02T09:44:07;1.20;;;1.10;;
37425;SDS011;23285;50.180;7.036;2022-09-02T09:47:02;10.40;;;1.93;;
37425;SDS011;23285;50.180;7.036;2022-09-02T09:50:02;1.93;;;1.40;;
37425;SDS011;23285;50.180;7.036;2022-09-02T09:52:52;2.17;;;1.27;;
37425;SDS011;23285;50.180;7.036;2022-09-02T09:55:59;2.77;;;1.30;;
37425;SDS011;23285;50.180;7.036;2022-09-02T09:58:50;2.57;;;1.20;;
37425;SDS011;23285;50.180;7.036;2022-09-02T10:01:36;1.50;;;1.03;;
37425;SDS011;23285;50.180;7.036;2022-09-02T10:04:29;1.23;;;1.10;;
37425;SDS011;23285;50.180;7.036;2022-09-02T10:07:20;9.77;;;1.50;;
37425;SDS011;23285;50.180;7.036;2022-09-02T10:10:19;2.23;;;1.20;;
37425;SDS011;23285;50.180;7.036;2022-09-02T10:13:17;6.00;;;1.20;;
37425;SDS011;23285;50.180;7.036;2022-09-02T10:22:30;2.20;;;1.10;;
37425;SDS011;23285;50.180;7.036;2022-09-02T10:25:46;2.10;;;1.47;;
37425;SDS011;23285;50.180;7.036;2022-09-02T10:31:51;3.70;;;1.10;;
37425;SDS011;23285;50.180;7.036;2022-09-02T10:41:39;3.80;;;1.40;;
37425;SDS011;23285;50.180;7.036;2022-09-02T10:44:42;5.63;;;1.40;;
37425;SDS011;23285;50.180;7.036;2022-09-02T10:47:35;7.77;;;1.40;;
37425;SDS011;23285;50.180;7.036;2022-09-02T10:50:33;7.13;;;1.20;;
37425;SDS011;23285;50.180;7.036;2022-09-02T10:56:22;1.47;;;1.13;;
37425;SDS011;23285;50.180;7.036;2022-09-02T10:59:13;3.67;;;1.50;;
37425;SDS011;23285;50.180;7.036;2022-09-02T11:04:53;3.63;;;1.30;;
37425;SDS011;23285;50.180;7.036;2022-09-02T11:10:42;3.37;;;1.40;;
37425;SDS011;23285;50.180;7.036;2022-09-02T11:13:50;1.47;;;1.30;;
37425;SDS011;23285;50.180;7.036;2022-09-02T11:17:02;1.63;;;1.30;;
37425;SDS011;23285;50.180;7.036;2022-09-02T11:19:54;2.40;;;1.30;;
37425;SDS011;23285;50.180;7.036;2022-09-02T11:25:48;1.57;;;1.37;;
37425;SDS011;23285;50.180;7.036;2022-09-02T11:31:50;1.97;;;0.97;;
37425;SDS011;23285;50.180;7.036;2022-09-02T11:37:32;2.40;;;1.40;;
37425;SDS011;23285;50.180;7.036;2022-09-02T11:46:42;2.07;;;1.50;;
37425;SDS011;23285;50.180;7.036;2022-09-02T11:58:51;3.40;;;1.50;;
37425;SDS011;23285;50.180;7.036;2022-09-02T12:01:37;1.63;;;1.20;;
37425;SDS011;23285;50.180;7.036;2022-09-02T12:04:23;3.20;;;1.17;;
37425;SDS011;23285;50.180;7.036;2022-09-02T12:09:56;3.57;;;1.30;;
37425;SDS011;23285;50.180;7.036;2022-09-02T12:15:26;4.73;;;1.50;;
37425;SDS011;23285;50.180;7.036;2022-09-02T12:18:27;3.70;;;1.10;;
37425;SDS011;23285;50.180;7.036;2022-09-02T12:21:15;2.23;;;1.53;;
37425;SDS011;23285;50.180;7.036;2022-09-02T12:24:04;5.13;;;1.40;;
37425;SDS011;23285;50.180;7.036;2022-09-02T12:29:37;6.10;;;1.13;;
37425;SDS011;23285;50.180;7.036;2022-09-02T12:35:31;1.27;;;1.20;;
37425;SDS011;23285;50.180;7.036;2022-09-02T12:38:24;2.70;;;1.00;;
37425;SDS011;23285;50.180;7.036;2022-09-02T12:41:14;2.03;;;1.20;;
37425;SDS011;23285;50.180;7.036;2022-09-02T12:44:21;4.33;;;1.30;;
37425;SDS011;23285;50.180;7.036;2022-09-02T12:50:07;3.03;;;1.20;;
37425;SDS011;23285;50.180;7.036;2022-09-02T12:56:21;2.17;;;1.40;;
37425;SDS011;23285;50.180;7.036;2022-09-02T12:59:07;4.13;;;1.20;;
37425;SDS011;23285;50.180;7.036;2022-09-02T13:01:56;1.83;;;1.23;;
37425;SDS011;23285;50.180;7.036;2022-09-02T13:04:57;1.63;;;1.30;;
37425;SDS011;23285;50.180;7.036;2022-09-02T13:29:41;1.50;;;1.17;;
37425;SDS011;23285;50.180;7.036;2022-09-02T13:32:35;1.93;;;1.33;;
37425;SDS011;23285;50.180;7.036;2022-09-02T13:35:23;1.57;;;1.30;;
37425;SDS011;23285;50.180;7.036;2022-09-02T13:38:10;2.77;;;1.37;;
37425;SDS011;23285;50.180;7.036;2022-09-02T13:40:56;3.27;;;1.23;;
37425;SDS011;23285;50.180;7.036;2022-09-02T13:43:42;8.63;;;1.50;;
37425;SDS011;23285;50.180;7.036;2022-09-02T13:46:28;2.47;;;1.33;;
37425;SDS011;23285;50.180;7.036;2022-09-02T13:49:18;2.17;;;1.30;;
37425;SDS011;23285;50.180;7.036;2022-09-02T13:52:04;3.07;;;1.20;;
37425;SDS011;23285;50.180;7.036;2022-09-02T13:54:54;2.27;;;1.30;;
37425;SDS011;23285;50.180;7.036;2022-09-02T13:57:53;8.27;;;1.40;;
37425;SDS011;23285;50.180;7.036;2022-09-02T14:00:43;1.23;;;1.10;;
37425;SDS011;23285;50.180;7.036;2022-09-02T14:03:28;1.60;;;1.00;;
37425;SDS011;23285;50.180;7.036;2022-09-02T14:06:19;1.57;;;1.20;;
37425;SDS011;23285;50.180;7.036;2022-09-02T14:09:19;3.43;;;1.10;;
37425;SDS011;23285;50.180;7.036;2022-09-02T14:12:10;2.13;;;1.43;;
37425;SDS011;23285;50.180;7.036;2022-09-02T14:14:56;3.20;;;1.13;;
37425;SDS011;23285;50.180;7.036;2022-09-02T14:17:42;1.20;;;1.10;;
37425;SDS011;23285;50.180;7.036;2022-09-02T14:20:27;1.70;;;1.30;;
37425;SDS011;23285;50.180;7.036;2022-09-02T14:23:12;1.37;;;1.27;;
37425;SDS011;23285;50.180;7.036;2022-09-02T14:26:00;2.90;;;1.37;;
37425;SDS011;23285;50.180;7.036;2022-09-02T14:28:49;2.77;;;1.20;;
37425;SDS011;23285;50.180;7.036;2022-09-02T14:31:35;1.50;;;1.40;;
37425;SDS011;23285;50.180;7.036;2022-09-02T14:34:31;1.23;;;1.13;;
37425;SDS011;23285;50.180;7.036;2022-09-02T14:37:25;1.57;;;1.30;;
37425;SDS011;23285;50.180;7.036;2022-09-02T14:40:14;1.63;;;1.13;;
37425;SDS011;23285;50.180;7.036;2022-09-02T14:43:00;2.27;;;1.17;;
37425;SDS011;23285;50.180;7.036;2022-09-02T14:45:47;2.63;;;1.40;;
37425;SDS011;23285;50.180;7.036;2022-09-02T14:48:36;2.00;;;1.30;;
37425;SDS011;23285;50.180;7.036;2022-09-02T14:51:22;2.20;;;1.27;;
37425;SDS011;23285;50.180;7.036;2022-09-02T14:54:33;3.50;;;1.40;;
37425;SDS011;23285;50.180;7.036;2022-09-02T14:57:26;1.23;;;1.10;;
37425;SDS011;23285;50.180;7.036;2022-09-02T15:00:14;1.17;;;1.07;;
37425;SDS011;23285;50.180;7.036;2022-09-02T15:03:02;3.60;;;1.43;;
37425;SDS011;23285;50.180;7.036;2022-09-02T15:05:47;4.80;;;1.10;;
37425;SDS011;23285;50.180;7.036;2022-09-02T15:08:33;4.87;;;1.40;;
37425;SDS011;23285;50.180;7.036;2022-09-02T15:11:18;4.20;;;1.10;;
37425;SDS011;23285;50.180;7.036;2022-09-02T15:14:05;3.13;;;1.07;;
37425;SDS011;23285;50.180;7.036;2022-09-02T15:16:50;3.23;;;1.20;;
37425;SDS011;23285;50.180;7.036;2022-09-02T15:19:35;2.53;;;1.10;;
37425;SDS011;23285;50.180;7.036;2022-09-02T15:22:20;1.90;;;1.20;;
37425;SDS011;23285;50.180;7.036;2022-09-02T15:25:06;1.17;;;1.00;;
37425;SDS011;23285;50.180;7.036;2022-09-02T15:27:51;2.33;;;1.30;;
37425;SDS011;23285;50.180;7.036;2022-09-02T15:30:37;1.83;;;1.20;;
37425;SDS011;23285;50.180;7.036;2022-09-02T15:33:23;3.80;;;1.10;;
37425;SDS011;23285;50.180;7.036;2022-09-02T15:36:09;2.37;;;1.20;;
37425;SDS011;23285;50.180;7.036;2022-09-02T15:38:54;1.30;;;1.20;;
37425;SDS011;23285;50.180;7.036;2022-09-02T15:41:42;1.57;;;1.10;;
37425;SDS011;23285;50.180;7.036;2022-09-02T15:44:27;2.30;;;1.20;;
37425;SDS011;23285;50.180;7.036;2022-09-02T15:47:14;1.90;;;1.13;;
37425;SDS011;23285;50.180;7.036;2022-09-02T15:49:59;1.57;;;1.00;;
37425;SDS011;23285;50.180;7.036;2022-09-02T15:52:44;4.80;;;1.10;;
37425;SDS011;23285;50.180;7.036;2022-09-02T15:55:30;2.27;;;1.20;;
37425;SDS011;23285;50.180;7.036;2022-09-02T15:58:16;1.13;;;1.03;;
37425;SDS011;23285;50.180;7.036;2022-09-02T16:01:04;1.80;;;1.17;;
37425;SDS011;23285;50.180;7.036;2022-09-02T16:03:50;6.53;;;1.20;;
37425;SDS011;23285;50.180;7.036;2022-09-02T16:06:36;4.00;;;1.10;;
37425;SDS011;23285;50.180;7.036;2022-09-02T16:09:22;3.40;;;1.50;;
37425;SDS011;23285;50.180;7.036;2022-09-02T16:12:08;1.40;;;1.30;;
37425;SDS011;23285;50.180;7.036;2022-09-02T16:14:54;5.30;;;1.17;;
37425;SDS011;23285;50.180;7.036;2022-09-02T16:17:39;1.93;;;1.10;;
37425;SDS011;23285;50.180;7.036;2022-09-02T16:20:25;5.10;;;1.30;;
37425;SDS011;23285;50.180;7.036;2022-09-02T16:23:10;2.03;;;1.20;;
37425;SDS011;23285;50.180;7.036;2022-09-02T16:29:00;2.47;;;1.27;;
37425;SDS011;23285;50.180;7.036;2022-09-02T16:31:48;1.93;;;1.40;;
37425;SDS011;23285;50.180;7.036;2022-09-02T16:34:35;1.23;;;1.10;;
37425;SDS011;23285;50.180;7.036;2022-09-02T16:37:21;2.57;;;1.20;;
37425;SDS011;23285;50.180;7.036;2022-09-02T16:40:06;3.90;;;1.23;;
37425;SDS011;23285;50.180;7.036;2022-09-02T16:42:52;3.73;;;1.13;;
37425;SDS011;23285;50.180;7.036;2022-09-02T16:45:37;5.43;;;1.23;;
37425;SDS011;23285;50.180;7.036;2022-09-02T16:48:23;1.67;;;1.03;;
37425;SDS011;23285;50.180;7.036;2022-09-02T16:51:11;2.70;;;1.10;;
37425;SDS011;23285;50.180;7.036;2022-09-02T16:54:00;4.00;;;1.30;;
37425;SDS011;23285;50.180;7.036;2022-09-02T16:56:47;2.27;;;1.30;;
37425;SDS011;23285;50.180;7.036;2022-09-02T16:59:33;1.90;;;1.00;;
37425;SDS011;23285;50.180;7.036;2022-09-02T17:02:18;3.80;;;1.60;;
37425;SDS011;23285;50.180;7.036;2022-09-02T17:05:04;1.70;;;1.30;;
37425;SDS011;23285;50.180;7.036;2022-09-02T17:07:51;3.37;;;1.20;;
37425;SDS011;23285;50.180;7.036;2022-09-02T17:10:40;3.93;;;1.00;;
37425;SDS011;23285;50.180;7.036;2022-09-02T17:13:25;4.80;;;1.23;;
37425;SDS011;23285;50.180;7.036;2022-09-02T17:16:11;3.53;;;1.90;;
37425;SDS011;23285;50.180;7.036;2022-09-02T17:18:58;6.33;;;2.63;;
37425;SDS011;23285;50.180;7.036;2022-09-02T17:21:46;3.97;;;2.37;;
37425;SDS011;23285;50.180;7.036;2022-09-02T17:24:35;3.30;;;1.30;;
37425;SDS011;23285;50.180;7.036;2022-09-02T17:27:23;3.77;;;1.20;;
37425;SDS011;23285;50.180;7.036;2022-09-02T17:30:09;1.40;;;1.30;;
37425;SDS011;23285;50.180;7.036;2022-09-02T17:32:55;2.77;;;1.23;;
37425;SDS011;23285;50.180;7.036;2022-09-02T17:35:41;1.30;;;1.20;;
37425;SDS011;23285;50.180;7.036;2022-09-02T17:38:27;2.83;;;1.20;;
37425;SDS011;23285;50.180;7.036;2022-09-02T17:41:12;2.50;;;1.50;;
37425;SDS011;23285;50.180;7.036;2022-09-02T17:44:17;2.13;;;1.17;;
37425;SDS011;23285;50.180;7.036;2022-09-02T17:47:12;4.57;;;1.40;;
37425;SDS011;23285;50.180;7.036;2022-09-02T17:50:00;2.30;;;1.37;;
37425;SDS011;23285;50.180;7.036;2022-09-02T17:52:45;1.63;;;1.00;;
37425;SDS011;23285;50.180;7.036;2022-09-02T17:55:31;1.47;;;1.23;;
37425;SDS011;23285;50.180;7.036;2022-09-02T17:58:17;4.27;;;1.50;;
37425;SDS011;23285;50.180;7.036;2022-09-02T18:01:05;2.83;;;1.30;;
37425;SDS011;23285;50.180;7.036;2022-09-02T18:10:19;3.40;;;1.10;;
37425;SDS011;23285;50.180;7.036;2022-09-02T18:13:05;1.10;;;1.00;;
37425;SDS011;23285;50.180;7.036;2022-09-02T18:15:55;1.10;;;1.00;;
37425;SDS011;23285;50.180;7.036;2022-09-02T18:18:45;1.37;;;0.93;;
37425;SDS011;23285;50.180;7.036;2022-09-02T18:21:47;1.27;;;1.10;;
37425;SDS011;23285;50.180;7.036;2022-09-02T18:37:30;3.43;;;1.10;;
37425;SDS011;23285;50.180;7.036;2022-09-02T18:40:46;4.20;;;1.10;;
37425;SDS011;23285;50.180;7.036;2022-09-02T18:43:37;1.30;;;1.00;;
37425;SDS011;23285;50.180;7.036;2022-09-02T18:46:31;2.93;;;0.93;;
37425;SDS011;23285;50.180;7.036;2022-09-02T18:49:22;2.60;;;1.10;;
37425;SDS011;23285;50.180;7.036;2022-09-02T18:52:09;2.73;;;1.10;;
37425;SDS011;23285;50.180;7.036;2022-09-02T18:57:50;1.00;;;0.90;;
37425;SDS011;23285;50.180;7.036;2022-09-02T19:00:44;1.07;;;1.00;;
37425;SDS011;23285;50.180;7.036;2022-09-02T19:03:34;1.13;;;1.00;;
37425;SDS011;23285;50.180;7.036;2022-09-02T19:06:22;2.70;;;1.37;;
37425;SDS011;23285;50.180;7.036;2022-09-02T19:09:10;2.50;;;1.00;;
37425;SDS011;23285;50.180;7.036;2022-09-02T19:11:57;2.03;;;1.20;;